sensor_id;sensor_type;location;lat;lon;timestamp;P1;durP1;ratioP1;P2;durP2;ratioP2
39792;SDS011;26080;42.264;24.536;2022-10-30T00:01:55;1.17;;;1.10;;
39792;SDS011;26080;42.264;24.536;2022-10-30T00:04:20;1.48;;;1.30;;
39792;SDS011;26080;42.264;24.536;2022-10-30T00:06:47;1.65;;;1.15;;
39792;SDS011;26080;42.264;24.536;2022-10-30T00:09:13;1.55;;;1.45;;
39792;SDS011;26080;42.264;24.536;2022-10-30T00:11:39;0.82;;;0.60;;
39792;SDS011;26080;42.264;24.536;2022-10-30T00:14:05;2.47;;;1.13;;
39792;SDS011;26080;42.264;24.536;2022-10-30T00:16:31;0.95;;;0.82;;
39792;SDS011;26080;42.264;24.536;2022-10-30T00:18:57;4.20;;;2.83;;
39792;SDS011;26080;42.264;24.536;2022-10-30T00:21:22;2.55;;;1.85;;
39792;SDS011;26080;42.264;24.536;2022-10-30T00:23:48;1.70;;;1.52;;
39792;SDS011;26080;42.264;24.536;2022-10-30T00:26:15;2.70;;;1.83;;
39792;SDS011;26080;42.264;24.536;2022-10-30T00:28:42;6.22;;;1.15;;
39792;SDS011;26080;42.264;24.536;2022-10-30T00:31:07;2.40;;;1.52;;
39792;SDS011;26080;42.264;24.536;2022-10-30T00:33:33;1.27;;;1.02;;
39792;SDS011;26080;42.264;24.536;2022-10-30T00:35:59;11.38;;;2.00;;
39792;SDS011;26080;42.264;24.536;2022-10-30T00:38:24;9.40;;;1.92;;
39792;SDS011;26080;42.264;24.536;2022-10-30T00:40:50;1.55;;;1.45;;
39792;SDS011;26080;42.264;24.536;2022-10-30T00:45:57;3.83;;;2.17;;
39792;SDS011;26080;42.264;24.536;2022-10-30T00:48:27;1.95;;;1.83;;
39792;SDS011;26080;42.264;24.536;2022-10-30T00:50:52;0.38;;;0.38;;
39792;SDS011;26080;42.264;24.536;2022-10-30T00:53:19;2.13;;;1.20;;
39792;SDS011;26080;42.264;24.536;2022-10-30T00:55:47;2.97;;;1.38;;
39792;SDS011;26080;42.264;24.536;2022-10-30T00:58:19;1.60;;;1.02;;
39792;SDS011;26080;42.264;24.536;2022-10-30T01:00:49;1.17;;;1.15;;
39792;SDS011;26080;42.264;24.536;2022-10-30T01:03:18;0.88;;;0.65;;
39792;SDS011;26080;42.264;24.536;2022-10-30T01:05:46;1.08;;;0.88;;
39792;SDS011;26080;42.264;24.536;2022-10-30T01:08:15;2.20;;;0.90;;
39792;SDS011;26080;42.264;24.536;2022-10-30T01:10:41;1.65;;;0.60;;
39792;SDS011;26080;42.264;24.536;2022-10-30T01:13:07;1.60;;;1.23;;
39792;SDS011;26080;42.264;24.536;2022-10-30T01:15:38;11.30;;;1.20;;
39792;SDS011;26080;42.264;24.536;2022-10-30T01:18:13;1.73;;;1.10;;
39792;SDS011;26080;42.264;24.536;2022-10-30T01:37:30;1.15;;;1.05;;
39792;SDS011;26080;42.264;24.536;2022-10-30T01:40:17;10.77;;;0.75;;
39792;SDS011;26080;42.264;24.536;2022-10-30T01:58:35;0.57;;;0.52;;
39792;SDS011;26080;42.264;24.536;2022-10-30T02:01:07;1.60;;;0.75;;
39792;SDS011;26080;42.264;24.536;2022-10-30T02:03:32;0.70;;;0.70;;
39792;SDS011;26080;42.264;24.536;2022-10-30T02:06:01;0.22;;;0.22;;
39792;SDS011;26080;42.264;24.536;2022-10-30T02:08:29;1.33;;;1.20;;
39792;SDS011;26080;42.264;24.536;2022-10-30T02:10:55;1.10;;;0.90;;
39792;SDS011;26080;42.264;24.536;2022-10-30T02:13:22;0.68;;;0.35;;
39792;SDS011;26080;42.264;24.536;2022-10-30T02:15:47;2.55;;;1.02;;
39792;SDS011;26080;42.264;24.536;2022-10-30T02:18:13;1.73;;;1.02;;
39792;SDS011;26080;42.264;24.536;2022-10-30T02:20:39;1.02;;;0.68;;
39792;SDS011;26080;42.264;24.536;2022-10-30T02:23:05;0.70;;;0.68;;
39792;SDS011;26080;42.264;24.536;2022-10-30T02:25:31;0.52;;;0.52;;
39792;SDS011;26080;42.264;24.536;2022-10-30T02:27:56;0.60;;;0.40;;
39792;SDS011;26080;42.264;24.536;2022-10-30T02:30:22;1.02;;;0.95;;
39792;SDS011;26080;42.264;24.536;2022-10-30T02:32:47;1.23;;;0.88;;
39792;SDS011;26080;42.264;24.536;2022-10-30T02:35:13;0.75;;;0.75;;
39792;SDS011;26080;42.264;24.536;2022-10-30T02:37:38;0.55;;;0.43;;
39792;SDS011;26080;42.264;24.536;2022-10-30T02:40:04;0.90;;;0.73;;
39792;SDS011;26080;42.264;24.536;2022-10-30T02:42:32;16.85;;;1.73;;
39792;SDS011;26080;42.264;24.536;2022-10-30T02:44:58;1.38;;;1.20;;
39792;SDS011;26080;42.264;24.536;2022-10-30T02:47:23;0.45;;;0.45;;
39792;SDS011;26080;42.264;24.536;2022-10-30T02:49:49;2.95;;;1.25;;
39792;SDS011;26080;42.264;24.536;2022-10-30T02:52:14;1.15;;;1.00;;
39792;SDS011;26080;42.264;24.536;2022-10-30T02:54:39;0.50;;;0.50;;
39792;SDS011;26080;42.264;24.536;2022-10-30T02:57:05;1.75;;;1.38;;
39792;SDS011;26080;42.264;24.536;2022-10-30T02:59:30;1.95;;;1.67;;
39792;SDS011;26080;42.264;24.536;2022-10-30T03:01:56;0.30;;;0.30;;
39792;SDS011;26080;42.264;24.536;2022-10-30T03:04:21;1.05;;;0.95;;
39792;SDS011;26080;42.264;24.536;2022-10-30T03:06:46;0.22;;;0.22;;
39792;SDS011;26080;42.264;24.536;2022-10-30T03:09:12;0.75;;;0.75;;
39792;SDS011;26080;42.264;24.536;2022-10-30T03:11:37;0.32;;;0.30;;
39792;SDS011;26080;42.264;24.536;2022-10-30T03:14:03;1.63;;;1.10;;
39792;SDS011;26080;42.264;24.536;2022-10-30T03:16:28;9.35;;;0.47;;
39792;SDS011;26080;42.264;24.536;2022-10-30T03:18:55;0.60;;;0.57;;
39792;SDS011;26080;42.264;24.536;2022-10-30T03:21:21;2.20;;;1.20;;
39792;SDS011;26080;42.264;24.536;2022-10-30T03:23:48;1.77;;;1.35;;
39792;SDS011;26080;42.264;24.536;2022-10-30T03:26:17;0.95;;;0.77;;
39792;SDS011;26080;42.264;24.536;2022-10-30T03:28:43;1.27;;;1.17;;
39792;SDS011;26080;42.264;24.536;2022-10-30T03:31:13;0.28;;;0.28;;
39792;SDS011;26080;42.264;24.536;2022-10-30T03:33:41;0.63;;;0.63;;
39792;SDS011;26080;42.264;24.536;2022-10-30T03:36:07;1.02;;;0.40;;
39792;SDS011;26080;42.264;24.536;2022-10-30T03:38:34;1.90;;;1.40;;
39792;SDS011;26080;42.264;24.536;2022-10-30T03:41:00;2.15;;;1.67;;
39792;SDS011;26080;42.264;24.536;2022-10-30T03:43:25;1.13;;;0.77;;
39792;SDS011;26080;42.264;24.536;2022-10-30T03:45:52;1.55;;;1.25;;
39792;SDS011;26080;42.264;24.536;2022-10-30T03:48:20;1.98;;;0.88;;
39792;SDS011;26080;42.264;24.536;2022-10-30T03:50:53;1.02;;;0.63;;
39792;SDS011;26080;42.264;24.536;2022-10-30T03:53:19;0.40;;;0.25;;
39792;SDS011;26080;42.264;24.536;2022-10-30T03:55:47;2.53;;;0.90;;
39792;SDS011;26080;42.264;24.536;2022-10-30T03:58:12;0.55;;;0.55;;
39792;SDS011;26080;42.264;24.536;2022-10-30T04:00:37;1.15;;;1.05;;
39792;SDS011;26080;42.264;24.536;2022-10-30T04:03:05;1.20;;;0.70;;
39792;SDS011;26080;42.264;24.536;2022-10-30T04:05:32;0.77;;;0.77;;
39792;SDS011;26080;42.264;24.536;2022-10-30T04:07:59;1.90;;;1.65;;
39792;SDS011;26080;42.264;24.536;2022-10-30T04:10:27;5.30;;;1.83;;
39792;SDS011;26080;42.264;24.536;2022-10-30T04:12:54;1.75;;;1.08;;
39792;SDS011;26080;42.264;24.536;2022-10-30T04:15:24;3.85;;;2.08;;
39792;SDS011;26080;42.264;24.536;2022-10-30T04:17:49;1.00;;;0.93;;
39792;SDS011;26080;42.264;24.536;2022-10-30T04:20:16;2.33;;;2.13;;
39792;SDS011;26080;42.264;24.536;2022-10-30T04:22:46;2.25;;;2.05;;
39792;SDS011;26080;42.264;24.536;2022-10-30T04:25:11;1.30;;;1.20;;
39792;SDS011;26080;42.264;24.536;2022-10-30T04:27:41;5.03;;;2.30;;
39792;SDS011;26080;42.264;24.536;2022-10-30T04:30:08;14.23;;;8.32;;
39792;SDS011;26080;42.264;24.536;2022-10-30T04:32:34;11.55;;;9.30;;
39792;SDS011;26080;42.264;24.536;2022-10-30T04:35:00;33.08;;;14.88;;
39792;SDS011;26080;42.264;24.536;2022-10-30T04:37:27;25.33;;;15.10;;
39792;SDS011;26080;42.264;24.536;2022-10-30T04:39:53;14.52;;;11.43;;
39792;SDS011;26080;42.264;24.536;2022-10-30T04:42:18;17.63;;;7.15;;
39792;SDS011;26080;42.264;24.536;2022-10-30T04:44:44;10.30;;;9.02;;
39792;SDS011;26080;42.264;24.536;2022-10-30T04:47:09;16.45;;;10.60;;
39792;SDS011;26080;42.264;24.536;2022-10-30T04:49:34;13.88;;;9.93;;
39792;SDS011;26080;42.264;24.536;2022-10-30T04:52:00;16.55;;;10.25;;
39792;SDS011;26080;42.264;24.536;2022-10-30T04:54:25;6.35;;;5.18;;
39792;SDS011;26080;42.264;24.536;2022-10-30T04:56:52;10.48;;;6.50;;
39792;SDS011;26080;42.264;24.536;2022-10-30T04:59:18;4.68;;;4.03;;
39792;SDS011;26080;42.264;24.536;2022-10-30T05:01:43;5.10;;;1.98;;
39792;SDS011;26080;42.264;24.536;2022-10-30T05:04:08;8.43;;;5.75;;
39792;SDS011;26080;42.264;24.536;2022-10-30T05:06:34;5.07;;;2.40;;
39792;SDS011;26080;42.264;24.536;2022-10-30T05:08:59;3.85;;;2.08;;
39792;SDS011;26080;42.264;24.536;2022-10-30T05:11:25;4.15;;;3.47;;
39792;SDS011;26080;42.264;24.536;2022-10-30T05:13:50;4.43;;;3.03;;
39792;SDS011;26080;42.264;24.536;2022-10-30T05:16:15;2.58;;;1.95;;
39792;SDS011;26080;42.264;24.536;2022-10-30T05:18:41;8.10;;;2.58;;
39792;SDS011;26080;42.264;24.536;2022-10-30T05:21:06;23.42;;;12.82;;
39792;SDS011;26080;42.264;24.536;2022-10-30T05:23:32;9.25;;;6.45;;
39792;SDS011;26080;42.264;24.536;2022-10-30T05:26:00;8.60;;;6.05;;
39792;SDS011;26080;42.264;24.536;2022-10-30T05:28:26;3.70;;;3.20;;
39792;SDS011;26080;42.264;24.536;2022-10-30T05:30:52;7.00;;;3.92;;
39792;SDS011;26080;42.264;24.536;2022-10-30T05:33:18;1.70;;;1.60;;
39792;SDS011;26080;42.264;24.536;2022-10-30T05:35:43;3.75;;;2.03;;
39792;SDS011;26080;42.264;24.536;2022-10-30T05:38:09;1.90;;;0.80;;
39792;SDS011;26080;42.264;24.536;2022-10-30T05:40:35;2.42;;;1.75;;
39792;SDS011;26080;42.264;24.536;2022-10-30T05:43:01;2.70;;;1.80;;
39792;SDS011;26080;42.264;24.536;2022-10-30T05:45:27;1.33;;;1.23;;
39792;SDS011;26080;42.264;24.536;2022-10-30T05:47:57;2.75;;;1.40;;
39792;SDS011;26080;42.264;24.536;2022-10-30T05:50:24;2.38;;;2.17;;
39792;SDS011;26080;42.264;24.536;2022-10-30T05:52:54;23.35;;;5.53;;
39792;SDS011;26080;42.264;24.536;2022-10-30T05:55:20;4.53;;;2.78;;
39792;SDS011;26080;42.264;24.536;2022-10-30T05:57:46;21.92;;;2.72;;
39792;SDS011;26080;42.264;24.536;2022-10-30T06:00:11;27.55;;;13.57;;
39792;SDS011;26080;42.264;24.536;2022-10-30T06:02:37;25.48;;;13.13;;
39792;SDS011;26080;42.264;24.536;2022-10-30T06:05:03;16.88;;;8.02;;
39792;SDS011;26080;42.264;24.536;2022-10-30T06:07:29;13.00;;;6.57;;
39792;SDS011;26080;42.264;24.536;2022-10-30T06:09:54;13.65;;;7.65;;
39792;SDS011;26080;42.264;24.536;2022-10-30T06:12:20;25.67;;;10.10;;
39792;SDS011;26080;42.264;24.536;2022-10-30T06:14:45;7.65;;;5.05;;
39792;SDS011;26080;42.264;24.536;2022-10-30T06:17:11;6.75;;;4.28;;
39792;SDS011;26080;42.264;24.536;2022-10-30T06:19:36;4.60;;;3.45;;
39792;SDS011;26080;42.264;24.536;2022-10-30T06:22:04;5.97;;;2.72;;
39792;SDS011;26080;42.264;24.536;2022-10-30T06:24:30;4.57;;;2.97;;
39792;SDS011;26080;42.264;24.536;2022-10-30T06:26:55;3.40;;;3.10;;
39792;SDS011;26080;42.264;24.536;2022-10-30T06:29:20;5.40;;;1.80;;
39792;SDS011;26080;42.264;24.536;2022-10-30T06:31:46;3.38;;;2.35;;
39792;SDS011;26080;42.264;24.536;2022-10-30T06:34:11;3.30;;;2.50;;
39792;SDS011;26080;42.264;24.536;2022-10-30T06:36:37;2.17;;;1.30;;
39792;SDS011;26080;42.264;24.536;2022-10-30T06:39:02;1.42;;;0.90;;
39792;SDS011;26080;42.264;24.536;2022-10-30T06:41:27;4.20;;;2.88;;
39792;SDS011;26080;42.264;24.536;2022-10-30T06:43:53;3.30;;;1.48;;
39792;SDS011;26080;42.264;24.536;2022-10-30T06:46:19;9.45;;;1.27;;
39792;SDS011;26080;42.264;24.536;2022-10-30T06:48:44;2.92;;;1.20;;
39792;SDS011;26080;42.264;24.536;2022-10-30T06:51:10;2.47;;;1.02;;
39792;SDS011;26080;42.264;24.536;2022-10-30T06:53:39;0.88;;;0.88;;
39792;SDS011;26080;42.264;24.536;2022-10-30T06:56:04;2.72;;;1.67;;
39792;SDS011;26080;42.264;24.536;2022-10-30T06:58:30;9.85;;;1.15;;
39792;SDS011;26080;42.264;24.536;2022-10-30T07:00:57;15.82;;;3.03;;
39792;SDS011;26080;42.264;24.536;2022-10-30T07:03:24;4.35;;;1.40;;
39792;SDS011;26080;42.264;24.536;2022-10-30T07:05:50;27.30;;;9.93;;
39792;SDS011;26080;42.264;24.536;2022-10-30T07:08:16;12.20;;;1.60;;
39792;SDS011;26080;42.264;24.536;2022-10-30T07:10:41;2.50;;;1.75;;
39792;SDS011;26080;42.264;24.536;2022-10-30T07:13:07;3.88;;;2.45;;
39792;SDS011;26080;42.264;24.536;2022-10-30T07:15:33;2.03;;;1.20;;
39792;SDS011;26080;42.264;24.536;2022-10-30T07:17:59;7.43;;;3.25;;
39792;SDS011;26080;42.264;24.536;2022-10-30T07:20:30;10.43;;;6.30;;
39792;SDS011;26080;42.264;24.536;2022-10-30T07:22:57;5.95;;;2.78;;
39792;SDS011;26080;42.264;24.536;2022-10-30T07:25:23;4.50;;;3.10;;
39792;SDS011;26080;42.264;24.536;2022-10-30T07:27:50;3.55;;;2.65;;
39792;SDS011;26080;42.264;24.536;2022-10-30T07:30:17;6.53;;;3.85;;
39792;SDS011;26080;42.264;24.536;2022-10-30T07:32:44;4.88;;;1.80;;
39792;SDS011;26080;42.264;24.536;2022-10-30T07:35:11;16.02;;;6.22;;
39792;SDS011;26080;42.264;24.536;2022-10-30T07:37:38;16.98;;;2.58;;
39792;SDS011;26080;42.264;24.536;2022-10-30T07:43:31;3.10;;;1.63;;
39792;SDS011;26080;42.264;24.536;2022-10-30T07:45:56;7.05;;;1.02;;
39792;SDS011;26080;42.264;24.536;2022-10-30T07:48:21;1.70;;;1.10;;
39792;SDS011;26080;42.264;24.536;2022-10-30T07:50:47;1.77;;;1.15;;
39792;SDS011;26080;42.264;24.536;2022-10-30T07:53:12;1.80;;;1.10;;
39792;SDS011;26080;42.264;24.536;2022-10-30T07:55:38;3.88;;;1.52;;
39792;SDS011;26080;42.264;24.536;2022-10-30T07:58:03;4.13;;;2.28;;
39792;SDS011;26080;42.264;24.536;2022-10-30T08:00:29;1.63;;;0.95;;
39792;SDS011;26080;42.264;24.536;2022-10-30T08:02:55;5.38;;;2.05;;
39792;SDS011;26080;42.264;24.536;2022-10-30T08:05:21;2.40;;;1.90;;
39792;SDS011;26080;42.264;24.536;2022-10-30T08:07:46;0.85;;;0.70;;
39792;SDS011;26080;42.264;24.536;2022-10-30T08:10:12;5.35;;;1.75;;
39792;SDS011;26080;42.264;24.536;2022-10-30T08:12:37;1.23;;;0.85;;
39792;SDS011;26080;42.264;24.536;2022-10-30T08:15:05;2.30;;;1.25;;
39792;SDS011;26080;42.264;24.536;2022-10-30T08:17:31;3.50;;;1.35;;
39792;SDS011;26080;42.264;24.536;2022-10-30T08:19:56;1.23;;;0.95;;
39792;SDS011;26080;42.264;24.536;2022-10-30T08:22:21;7.00;;;1.20;;
39792;SDS011;26080;42.264;24.536;2022-10-30T08:24:47;1.92;;;1.08;;
39792;SDS011;26080;42.264;24.536;2022-10-30T08:27:12;2.50;;;1.55;;
39792;SDS011;26080;42.264;24.536;2022-10-30T08:29:38;0.98;;;0.93;;
39792;SDS011;26080;42.264;24.536;2022-10-30T08:32:03;6.97;;;1.38;;
39792;SDS011;26080;42.264;24.536;2022-10-30T08:34:29;6.60;;;2.00;;
39792;SDS011;26080;42.264;24.536;2022-10-30T08:36:56;47.53;;;2.10;;
39792;SDS011;26080;42.264;24.536;2022-10-30T08:39:22;3.22;;;1.10;;
39792;SDS011;26080;42.264;24.536;2022-10-30T08:41:47;25.27;;;1.35;;
39792;SDS011;26080;42.264;24.536;2022-10-30T08:44:12;1.80;;;1.35;;
39792;SDS011;26080;42.264;24.536;2022-10-30T08:46:38;1.00;;;0.90;;
39792;SDS011;26080;42.264;24.536;2022-10-30T08:49:03;2.97;;;1.25;;
39792;SDS011;26080;42.264;24.536;2022-10-30T08:51:32;3.72;;;1.50;;
39792;SDS011;26080;42.264;24.536;2022-10-30T08:53:58;0.75;;;0.65;;
39792;SDS011;26080;42.264;24.536;2022-10-30T08:56:24;1.02;;;0.93;;
39792;SDS011;26080;42.264;24.536;2022-10-30T08:58:50;0.98;;;0.80;;
39792;SDS011;26080;42.264;24.536;2022-10-30T09:01:16;3.05;;;1.88;;
39792;SDS011;26080;42.264;24.536;2022-10-30T09:03:43;2.75;;;1.92;;
39792;SDS011;26080;42.264;24.536;2022-10-30T09:06:08;0.98;;;0.93;;
39792;SDS011;26080;42.264;24.536;2022-10-30T09:08:34;5.10;;;1.73;;
39792;SDS011;26080;42.264;24.536;2022-10-30T09:10:59;8.80;;;1.83;;
39792;SDS011;26080;42.264;24.536;2022-10-30T09:13:25;10.38;;;1.08;;
39792;SDS011;26080;42.264;24.536;2022-10-30T09:15:51;3.33;;;0.50;;
39792;SDS011;26080;42.264;24.536;2022-10-30T09:18:16;2.08;;;1.10;;
39792;SDS011;26080;42.264;24.536;2022-10-30T09:20:42;7.15;;;2.65;;
39792;SDS011;26080;42.264;24.536;2022-10-30T09:23:07;0.93;;;0.82;;
39792;SDS011;26080;42.264;24.536;2022-10-30T09:25:33;0.28;;;0.28;;
39792;SDS011;26080;42.264;24.536;2022-10-30T09:27:58;2.97;;;1.50;;
39792;SDS011;26080;42.264;24.536;2022-10-30T09:30:24;1.73;;;1.33;;
39792;SDS011;26080;42.264;24.536;2022-10-30T09:32:59;2.33;;;1.00;;
39792;SDS011;26080;42.264;24.536;2022-10-30T09:35:28;11.27;;;2.25;;
39792;SDS011;26080;42.264;24.536;2022-10-30T09:37:55;12.05;;;2.28;;
39792;SDS011;26080;42.264;24.536;2022-10-30T09:43:15;1.95;;;1.38;;
39792;SDS011;26080;42.264;24.536;2022-10-30T09:48:42;19.10;;;1.83;;
39792;SDS011;26080;42.264;24.536;2022-10-30T09:54:08;2.00;;;1.45;;
39792;SDS011;26080;42.264;24.536;2022-10-30T09:56:42;1.63;;;1.25;;
39792;SDS011;26080;42.264;24.536;2022-10-30T10:04:50;0.93;;;0.87;;
39792;SDS011;26080;42.264;24.536;2022-10-30T10:09:48;1.05;;;0.95;;
39792;SDS011;26080;42.264;24.536;2022-10-30T10:14:46;2.95;;;1.02;;
39792;SDS011;26080;42.264;24.536;2022-10-30T10:17:14;2.60;;;1.35;;
39792;SDS011;26080;42.264;24.536;2022-10-30T10:19:51;2.45;;;1.38;;
39792;SDS011;26080;42.264;24.536;2022-10-30T10:22:25;1.05;;;0.95;;
39792;SDS011;26080;42.264;24.536;2022-10-30T10:24:56;1.75;;;0.85;;
39792;SDS011;26080;42.264;24.536;2022-10-30T10:38:32;2.95;;;1.20;;
39792;SDS011;26080;42.264;24.536;2022-10-30T10:41:34;1.95;;;0.75;;
39792;SDS011;26080;42.264;24.536;2022-10-30T10:51:51;4.65;;;2.10;;
39792;SDS011;26080;42.264;24.536;2022-10-30T10:54:29;0.38;;;0.38;;
39792;SDS011;26080;42.264;24.536;2022-10-30T10:57:01;13.98;;;1.75;;
39792;SDS011;26080;42.264;24.536;2022-10-30T10:59:36;1.70;;;1.27;;
39792;SDS011;26080;42.264;24.536;2022-10-30T11:02:27;0.52;;;0.50;;
39792;SDS011;26080;42.264;24.536;2022-10-30T11:05:29;1.33;;;0.85;;
39792;SDS011;26080;42.264;24.536;2022-10-30T11:07:58;3.45;;;0.93;;
39792;SDS011;26080;42.264;24.536;2022-10-30T11:10:30;0.30;;;0.30;;
39792;SDS011;26080;42.264;24.536;2022-10-30T11:12:56;0.80;;;0.70;;
39792;SDS011;26080;42.264;24.536;2022-10-30T11:18:06;13.13;;;2.55;;
39792;SDS011;26080;42.264;24.536;2022-10-30T11:23:42;4.35;;;0.75;;
39792;SDS011;26080;42.264;24.536;2022-10-30T11:28:57;0.50;;;0.47;;
39792;SDS011;26080;42.264;24.536;2022-10-30T11:31:37;3.05;;;1.17;;
39792;SDS011;26080;42.264;24.536;2022-10-30T11:36:41;3.72;;;0.85;;
39792;SDS011;26080;42.264;24.536;2022-10-30T11:39:08;2.55;;;0.98;;
39792;SDS011;26080;42.264;24.536;2022-10-30T11:41:35;1.02;;;0.60;;
39792;SDS011;26080;42.264;24.536;2022-10-30T11:44:02;0.88;;;0.57;;
39792;SDS011;26080;42.264;24.536;2022-10-30T11:46:29;3.50;;;1.27;;
39792;SDS011;26080;42.264;24.536;2022-10-30T11:48:57;6.50;;;0.65;;
39792;SDS011;26080;42.264;24.536;2022-10-30T11:51:30;1.40;;;0.88;;
39792;SDS011;26080;42.264;24.536;2022-10-30T11:54:04;1.02;;;0.90;;
39792;SDS011;26080;42.264;24.536;2022-10-30T11:56:31;0.55;;;0.55;;
39792;SDS011;26080;42.264;24.536;2022-10-30T11:58:58;2.25;;;1.35;;
39792;SDS011;26080;42.264;24.536;2022-10-30T12:01:35;2.65;;;1.02;;
39792;SDS011;26080;42.264;24.536;2022-10-30T12:04:21;1.05;;;0.65;;
39792;SDS011;26080;42.264;24.536;2022-10-30T12:06:49;2.00;;;1.00;;
39792;SDS011;26080;42.264;24.536;2022-10-30T12:11:55;5.35;;;1.48;;
39792;SDS011;26080;42.264;24.536;2022-10-30T12:14:22;4.80;;;1.25;;
39792;SDS011;26080;42.264;24.536;2022-10-30T12:16:51;0.80;;;0.77;;
39792;SDS011;26080;42.264;24.536;2022-10-30T12:19:20;0.35;;;0.35;;
39792;SDS011;26080;42.264;24.536;2022-10-30T12:21:48;2.17;;;0.70;;
39792;SDS011;26080;42.264;24.536;2022-10-30T12:24:24;0.60;;;0.50;;
39792;SDS011;26080;42.264;24.536;2022-10-30T12:26:53;1.88;;;0.50;;
39792;SDS011;26080;42.264;24.536;2022-10-30T12:29:21;1.33;;;0.77;;
39792;SDS011;26080;42.264;24.536;2022-10-30T12:34:25;10.98;;;1.58;;
39792;SDS011;26080;42.264;24.536;2022-10-30T12:37:05;0.35;;;0.35;;
39792;SDS011;26080;42.264;24.536;2022-10-30T12:39:44;1.50;;;0.80;;
39792;SDS011;26080;42.264;24.536;2022-10-30T12:42:20;0.40;;;0.30;;
39792;SDS011;26080;42.264;24.536;2022-10-30T12:45:05;4.03;;;1.40;;
39792;SDS011;26080;42.264;24.536;2022-10-30T12:50:41;1.65;;;0.82;;
39792;SDS011;26080;42.264;24.536;2022-10-30T12:55:55;0.50;;;0.43;;
39792;SDS011;26080;42.264;24.536;2022-10-30T13:04:34;0.95;;;0.68;;
39792;SDS011;26080;42.264;24.536;2022-10-30T13:12:26;0.30;;;0.30;;
39792;SDS011;26080;42.264;24.536;2022-10-30T13:17:26;7.07;;;1.15;;
39792;SDS011;26080;42.264;24.536;2022-10-30T13:19:52;1.58;;;0.68;;
39792;SDS011;26080;42.264;24.536;2022-10-30T13:25:03;0.70;;;0.50;;
39792;SDS011;26080;42.264;24.536;2022-10-30T13:27:44;1.40;;;0.95;;
39792;SDS011;26080;42.264;24.536;2022-10-30T13:30:18;14.60;;;1.00;;
39792;SDS011;26080;42.264;24.536;2022-10-30T13:35:33;3.40;;;0.60;;
39792;SDS011;26080;42.264;24.536;2022-10-30T13:43:34;3.08;;;1.45;;
39792;SDS011;26080;42.264;24.536;2022-10-30T13:46:12;5.47;;;1.33;;
39792;SDS011;26080;42.264;24.536;2022-10-30T13:48:57;1.38;;;0.70;;
39792;SDS011;26080;42.264;24.536;2022-10-30T13:56:42;1.30;;;0.70;;
39792;SDS011;26080;42.264;24.536;2022-10-30T14:05:18;2.83;;;1.05;;
39792;SDS011;26080;42.264;24.536;2022-10-30T14:08:31;0.75;;;0.50;;
39792;SDS011;26080;42.264;24.536;2022-10-30T14:11:11;2.85;;;1.33;;
39792;SDS011;26080;42.264;24.536;2022-10-30T14:19:11;1.15;;;0.77;;
39792;SDS011;26080;42.264;24.536;2022-10-30T14:21:49;4.38;;;1.33;;
39792;SDS011;26080;42.264;24.536;2022-10-30T14:24:20;7.93;;;2.72;;
39792;SDS011;26080;42.264;24.536;2022-10-30T14:29:29;16.40;;;2.63;;
39792;SDS011;26080;42.264;24.536;2022-10-30T14:31:58;3.55;;;1.83;;
39792;SDS011;26080;42.264;24.536;2022-10-30T14:39:47;1.15;;;0.85;;
39792;SDS011;26080;42.264;24.536;2022-10-30T14:45:15;0.57;;;0.55;;
39792;SDS011;26080;42.264;24.536;2022-10-30T14:51:13;31.90;;;4.85;;
39792;SDS011;26080;42.264;24.536;2022-10-30T14:56:48;46.22;;;22.65;;
39792;SDS011;26080;42.264;24.536;2022-10-30T15:04:14;44.55;;;18.08;;
39792;SDS011;26080;42.264;24.536;2022-10-30T15:06:46;48.50;;;22.58;;
39792;SDS011;26080;42.264;24.536;2022-10-30T15:09:31;40.63;;;17.25;;
39792;SDS011;26080;42.264;24.536;2022-10-30T15:14:53;16.05;;;6.07;;
39792;SDS011;26080;42.264;24.536;2022-10-30T15:19:58;11.60;;;7.57;;
39792;SDS011;26080;42.264;24.536;2022-10-30T15:22:29;23.90;;;5.15;;
39792;SDS011;26080;42.264;24.536;2022-10-30T15:24:57;13.70;;;4.88;;
39792;SDS011;26080;42.264;24.536;2022-10-30T15:27:22;12.88;;;5.15;;
39792;SDS011;26080;42.264;24.536;2022-10-30T15:29:52;9.95;;;4.80;;
39792;SDS011;26080;42.264;24.536;2022-10-30T15:32:20;9.68;;;4.82;;
39792;SDS011;26080;42.264;24.536;2022-10-30T15:34:51;9.18;;;3.72;;
39792;SDS011;26080;42.264;24.536;2022-10-30T15:37:26;9.07;;;4.80;;
39792;SDS011;26080;42.264;24.536;2022-10-30T15:40:36;7.68;;;4.95;;
39792;SDS011;26080;42.264;24.536;2022-10-30T15:42:44;8.63;;;5.78;;
39792;SDS011;26080;42.264;24.536;2022-10-30T15:45:16;13.70;;;9.25;;
39792;SDS011;26080;42.264;24.536;2022-10-30T15:47:45;17.43;;;7.10;;
39792;SDS011;26080;42.264;24.536;2022-10-30T15:50:12;23.45;;;7.85;;
39792;SDS011;26080;42.264;24.536;2022-10-30T15:52:40;6.75;;;3.20;;
39792;SDS011;26080;42.264;24.536;2022-10-30T15:55:08;15.40;;;2.00;;
39792;SDS011;26080;42.264;24.536;2022-10-30T15:57:48;7.85;;;2.80;;
39792;SDS011;26080;42.264;24.536;2022-10-30T16:00:23;13.32;;;2.90;;
39792;SDS011;26080;42.264;24.536;2022-10-30T16:05:30;7.50;;;3.25;;
39792;SDS011;26080;42.264;24.536;2022-10-30T16:07:57;3.17;;;2.05;;
39792;SDS011;26080;42.264;24.536;2022-10-30T16:10:33;2.92;;;1.85;;
39792;SDS011;26080;42.264;24.536;2022-10-30T16:13:00;10.75;;;3.15;;
39792;SDS011;26080;42.264;24.536;2022-10-30T16:15:27;4.22;;;3.50;;
39792;SDS011;26080;42.264;24.536;2022-10-30T16:20:38;6.20;;;2.75;;
39792;SDS011;26080;42.264;24.536;2022-10-30T16:23:05;16.88;;;7.35;;
39792;SDS011;26080;42.264;24.536;2022-10-30T16:25:30;24.58;;;4.70;;
39792;SDS011;26080;42.264;24.536;2022-10-30T16:27:59;10.05;;;4.05;;
39792;SDS011;26080;42.264;24.536;2022-10-30T16:30:25;8.68;;;2.70;;
39792;SDS011;26080;42.264;24.536;2022-10-30T16:32:53;10.57;;;3.20;;
39792;SDS011;26080;42.264;24.536;2022-10-30T16:35:20;5.82;;;4.00;;
39792;SDS011;26080;42.264;24.536;2022-10-30T16:37:48;10.25;;;5.30;;
39792;SDS011;26080;42.264;24.536;2022-10-30T16:40:15;10.57;;;6.70;;
39792;SDS011;26080;42.264;24.536;2022-10-30T16:42:45;19.67;;;9.68;;
39792;SDS011;26080;42.264;24.536;2022-10-30T16:47:51;19.35;;;5.63;;
39792;SDS011;26080;42.264;24.536;2022-10-30T16:50:26;12.65;;;3.28;;
39792;SDS011;26080;42.264;24.536;2022-10-30T16:53:03;3.70;;;2.38;;
39792;SDS011;26080;42.264;24.536;2022-10-30T16:55:39;9.48;;;2.65;;
39792;SDS011;26080;42.264;24.536;2022-10-30T16:58:05;3.30;;;1.65;;
39792;SDS011;26080;42.264;24.536;2022-10-30T17:00:30;4.88;;;2.20;;
39792;SDS011;26080;42.264;24.536;2022-10-30T17:02:57;14.90;;;1.95;;
39792;SDS011;26080;42.264;24.536;2022-10-30T17:07:59;3.35;;;1.70;;
39792;SDS011;26080;42.264;24.536;2022-10-30T17:10:44;3.78;;;2.08;;
39792;SDS011;26080;42.264;24.536;2022-10-30T17:13:31;1.58;;;1.00;;
39792;SDS011;26080;42.264;24.536;2022-10-30T17:19:44;2.17;;;1.20;;
39792;SDS011;26080;42.264;24.536;2022-10-30T17:22:11;2.35;;;1.52;;
39792;SDS011;26080;42.264;24.536;2022-10-30T17:24:41;3.20;;;1.73;;
39792;SDS011;26080;42.264;24.536;2022-10-30T17:27:21;3.95;;;2.08;;
39792;SDS011;26080;42.264;24.536;2022-10-30T17:29:52;1.75;;;0.90;;
39792;SDS011;26080;42.264;24.536;2022-10-30T17:32:22;9.50;;;1.85;;
39792;SDS011;26080;42.264;24.536;2022-10-30T17:35:00;3.40;;;2.35;;
39792;SDS011;26080;42.264;24.536;2022-10-30T17:37:28;5.75;;;1.85;;
39792;SDS011;26080;42.264;24.536;2022-10-30T17:39:53;5.75;;;2.10;;
39792;SDS011;26080;42.264;24.536;2022-10-30T17:42:19;1.40;;;1.20;;